createdAt,value
2023-02-26T00:00:01.617Z,3.32
2023-02-26T00:02:28.093Z,3.39
2023-02-26T00:04:54.502Z,3.31
2023-02-26T00:07:21.084Z,3.42
2023-02-26T00:09:47.467Z,3.31
2023-02-26T00:12:13.865Z,3.22
2023-02-26T00:14:40.850Z,3.26
2023-02-26T00:17:20.169Z,3.21
2023-02-26T00:19:46.768Z,3.17
2023-02-26T00:22:13.396Z,3.07
2023-02-26T00:24:39.825Z,3.23
2023-02-26T00:27:06.353Z,3.25
2023-02-26T00:29:33.253Z,2.96
2023-02-26T00:31:59.907Z,2.92
2023-02-26T00:34:26.742Z,3.01
2023-02-26T00:37:09.403Z,3.12
2023-02-26T00:39:48.239Z,3.05
2023-02-26T00:42:15.298Z,2.98
2023-02-26T00:44:41.950Z,2.93
2023-02-26T00:47:30.781Z,3.02
2023-02-26T00:50:16.750Z,3.13
2023-02-26T00:52:49.131Z,3.14
2023-02-26T00:55:15.796Z,3.16
2023-02-26T00:57:42.526Z,3.08
2023-02-26T01:00:09.849Z,2.95
2023-02-26T01:02:37.623Z,3.10
2023-02-26T01:05:04.597Z,3.04
2023-02-26T01:07:37.616Z,2.99
2023-02-26T01:10:04.691Z,2.72
2023-02-26T01:12:31.259Z,2.99
2023-02-26T01:14:57.825Z,2.99
2023-02-26T01:17:39.814Z,2.98
2023-02-26T01:20:27.323Z,2.82
2023-02-26T01:23:03.637Z,2.62
2023-02-26T01:25:43.056Z,2.79
2023-02-26T01:28:09.921Z,2.86
2023-02-26T01:30:36.783Z,2.87
2023-02-26T01:33:25.075Z,2.72
2023-02-26T01:36:24.293Z,2.67
2023-02-26T01:39:01.358Z,2.80
2023-02-26T01:41:31.887Z,2.72
2023-02-26T01:44:27.124Z,2.87
2023-02-26T01:47:04.935Z,2.77
2023-02-26T01:49:32.321Z,2.95
2023-02-26T01:52:00.976Z,2.77
2023-02-26T01:54:38.293Z,2.70
2023-02-26T01:57:15.306Z,2.75
2023-02-26T01:59:46.932Z,2.69
2023-02-26T02:02:17.031Z,2.88
2023-02-26T02:04:44.213Z,2.88
2023-02-26T02:07:10.778Z,2.85
2023-02-26T02:09:37.360Z,2.88
2023-02-26T02:12:15.813Z,3.02
2023-02-26T02:15:07.189Z,2.96
2023-02-26T02:17:58.213Z,2.97
2023-02-26T02:20:43.204Z,2.87
2023-02-26T02:23:21.695Z,2.84
2023-02-26T02:26:16.133Z,2.90
2023-02-26T02:29:09.338Z,2.82
2023-02-26T02:32:09.804Z,3.03
2023-02-26T02:34:53.210Z,2.78
2023-02-26T02:37:28.062Z,2.89
2023-02-26T02:40:01.813Z,2.76
2023-02-26T02:42:49.974Z,2.88
2023-02-26T02:45:20.433Z,2.86
2023-02-26T02:47:50.513Z,2.93
2023-02-26T02:50:26.371Z,2.79
2023-02-26T02:52:57.955Z,2.77
2023-02-26T02:55:30.878Z,2.88
2023-02-26T02:58:29.057Z,2.79
2023-02-26T03:00:58.853Z,2.93
2023-02-26T03:03:35.745Z,2.94
2023-02-26T03:06:02.567Z,2.78
2023-02-26T03:08:33.342Z,2.92
2023-02-26T03:10:59.993Z,2.80
2023-02-26T03:13:27.150Z,2.87
2023-02-26T03:16:31.200Z,2.96
2023-02-26T03:19:16.362Z,2.84
2023-02-26T03:21:50.515Z,2.95
2023-02-26T03:24:29.374Z,2.92
2023-02-26T03:27:10.501Z,3.03
2023-02-26T03:29:56.196Z,3.07
2023-02-26T03:32:28.576Z,3.27
2023-02-26T03:35:19.114Z,3.18
2023-02-26T03:37:50.925Z,3.19
2023-02-26T03:40:26.348Z,3.02
2023-02-26T03:42:57.051Z,2.80
2023-02-26T03:45:34.651Z,3.10
2023-02-26T03:48:03.493Z,2.72
2023-02-26T03:50:33.310Z,3.12
2023-02-26T03:53:02.353Z,3.07
2023-02-26T03:55:33.256Z,3.08
2023-02-26T03:57:59.786Z,3.15
2023-02-26T04:00:27.749Z,3.03
2023-02-26T04:03:13.621Z,3.06
2023-02-26T04:05:42.462Z,3.03
2023-02-26T04:08:09.061Z,2.99
2023-02-26T04:10:40.273Z,2.83
2023-02-26T04:13:07.473Z,3.01
2023-02-26T04:15:33.939Z,2.82
2023-02-26T04:18:00.460Z,2.86
2023-02-26T04:20:26.885Z,2.91
2023-02-26T04:22:53.648Z,2.98
2023-02-26T04:25:20.055Z,2.86
2023-02-26T04:27:46.423Z,2.86
2023-02-26T04:30:13.031Z,2.79
2023-02-26T04:32:39.636Z,2.77
2023-02-26T04:35:06.132Z,2.61
2023-02-26T04:37:32.509Z,2.80
2023-02-26T04:39:58.896Z,2.86
2023-02-26T04:42:25.311Z,2.80
2023-02-26T04:44:51.788Z,2.83
2023-02-26T04:47:18.186Z,2.78
2023-02-26T04:49:44.533Z,2.82
2023-02-26T04:52:11.106Z,2.83
2023-02-26T04:54:37.994Z,2.82
2023-02-26T04:57:04.493Z,2.66
2023-02-26T04:59:30.949Z,2.54
2023-02-26T05:01:57.480Z,2.57
2023-02-26T05:04:24.157Z,2.61
2023-02-26T05:06:50.947Z,2.58
2023-02-26T05:09:17.653Z,2.51
2023-02-26T05:11:44.061Z,2.54
2023-02-26T05:14:10.470Z,2.53
2023-02-26T05:16:37.116Z,2.43
2023-02-26T05:19:03.506Z,2.45
2023-02-26T05:21:30.131Z,2.56
2023-02-26T05:23:56.697Z,2.57
2023-02-26T05:26:23.460Z,2.50
2023-02-26T05:28:50.046Z,2.57
2023-02-26T05:31:16.543Z,2.58
2023-02-26T05:33:43.251Z,2.46
2023-02-26T05:36:09.980Z,2.53
2023-02-26T05:38:36.672Z,2.70
2023-02-26T05:41:03.585Z,2.67
2023-02-26T05:43:30.628Z,2.68
2023-02-26T05:45:57.139Z,2.69
2023-02-26T05:48:23.801Z,2.79
2023-02-26T05:50:50.581Z,2.54
2023-02-26T05:53:17.333Z,2.65
2023-02-26T05:55:43.789Z,2.64
2023-02-26T05:58:10.538Z,2.70
2023-02-26T06:00:37.475Z,2.69
2023-02-26T06:03:03.904Z,2.79
2023-02-26T06:05:30.311Z,2.72
2023-02-26T06:07:56.703Z,2.73
2023-02-26T06:10:23.080Z,2.72
2023-02-26T06:12:49.451Z,2.59
2023-02-26T06:15:15.864Z,2.71
2023-02-26T06:17:42.259Z,2.79
2023-02-26T06:20:09.531Z,2.76
2023-02-26T06:22:36.222Z,2.72
2023-02-26T06:25:02.766Z,2.82
2023-02-26T06:27:29.204Z,2.72
2023-02-26T06:29:55.628Z,2.47
2023-02-26T06:32:22.318Z,2.70
2023-02-26T06:34:48.799Z,2.95
2023-02-26T06:37:15.349Z,2.97
2023-02-26T06:39:41.920Z,2.74
2023-02-26T06:42:08.634Z,2.94
2023-02-26T06:44:35.037Z,2.84
2023-02-26T06:47:01.524Z,2.97
2023-02-26T06:49:27.908Z,2.94
2023-02-26T06:51:54.285Z,2.85
2023-02-26T06:54:20.706Z,3.19
2023-02-26T06:56:47.388Z,3.16
2023-02-26T06:59:15.261Z,3.00
2023-02-26T07:01:41.683Z,3.07
2023-02-26T07:04:08.179Z,3.20
2023-02-26T07:06:34.779Z,3.12
2023-02-26T07:09:01.235Z,3.03
2023-02-26T07:11:27.696Z,3.23
2023-02-26T07:13:55.631Z,3.16
2023-02-26T07:16:22.647Z,3.01
2023-02-26T07:18:49.112Z,3.22
2023-02-26T07:21:15.524Z,3.14
2023-02-26T07:23:41.910Z,3.26
2023-02-26T07:26:08.927Z,3.16
2023-02-26T07:28:35.642Z,3.25
2023-02-26T07:31:02.226Z,3.27
2023-02-26T07:33:28.922Z,3.61
2023-02-26T07:35:55.353Z,3.60
2023-02-26T07:38:22.500Z,3.83
2023-02-26T07:40:49.154Z,3.78
2023-02-26T07:43:15.661Z,3.74
2023-02-26T07:45:42.057Z,3.90
2023-02-26T07:48:08.772Z,4.14
2023-02-26T07:50:35.364Z,4.27
2023-02-26T07:53:01.770Z,4.27
2023-02-26T07:55:28.465Z,4.28
2023-02-26T07:57:54.879Z,4.45
2023-02-26T08:00:21.722Z,4.15
2023-02-26T08:02:48.282Z,4.14
2023-02-26T08:05:14.692Z,4.24
2023-02-26T08:07:41.137Z,4.40
2023-02-26T08:10:08.098Z,4.60
2023-02-26T08:12:34.625Z,4.57
2023-02-26T08:15:01.004Z,4.72
2023-02-26T08:17:27.737Z,4.67
2023-02-26T08:19:54.285Z,4.47
2023-02-26T08:22:21.197Z,4.53
2023-02-26T08:24:47.591Z,4.80
2023-02-26T08:27:13.998Z,4.82
2023-02-26T08:29:40.417Z,4.82
2023-02-26T08:32:06.947Z,5.03
2023-02-26T08:34:33.495Z,4.99
2023-02-26T08:37:02.286Z,4.38
2023-02-26T08:39:28.854Z,4.53
2023-02-26T08:41:55.626Z,4.65
2023-02-26T08:44:22.371Z,4.41
2023-02-26T08:46:49.545Z,4.76
2023-02-26T08:49:16.001Z,5.06
2023-02-26T08:51:42.433Z,5.14
2023-02-26T08:54:09.758Z,5.17
2023-02-26T08:56:36.188Z,4.91
2023-02-26T08:59:02.635Z,4.93
2023-02-26T09:01:29.407Z,4.98
2023-02-26T09:03:56.097Z,4.60
2023-02-26T09:06:22.481Z,4.96
2023-02-26T09:08:49.380Z,5.25
2023-02-26T09:11:15.771Z,5.23
2023-02-26T09:13:42.771Z,5.43
2023-02-26T09:16:09.225Z,5.47
2023-02-26T09:18:35.799Z,5.44
2023-02-26T09:21:03.070Z,5.44
2023-02-26T09:23:29.629Z,5.58
2023-02-26T09:25:57.456Z,5.32
2023-02-26T09:28:26.578Z,5.36
2023-02-26T09:30:54.795Z,5.62
2023-02-26T09:33:21.951Z,5.55
2023-02-26T09:35:49.815Z,5.59
2023-02-26T09:38:16.792Z,5.56
2023-02-26T09:41:07.192Z,5.71
2023-02-26T09:43:52.703Z,5.86
2023-02-26T09:46:28.825Z,6.14
2023-02-26T09:49:17.963Z,5.82
2023-02-26T09:51:47.658Z,5.99
2023-02-26T09:54:34.326Z,5.63
2023-02-26T09:57:01.188Z,5.57
2023-02-26T09:59:31.916Z,5.79
2023-02-26T10:02:24.200Z,6.54
2023-02-26T10:05:21.601Z,6.26
2023-02-26T10:07:58.249Z,6.30
2023-02-26T10:10:49.989Z,6.46
2023-02-26T10:13:24.089Z,6.51
2023-02-26T10:15:50.649Z,6.59
2023-02-26T10:18:22.206Z,6.34
2023-02-26T10:20:58.784Z,6.79
2023-02-26T10:23:32.364Z,6.32
2023-02-26T10:26:04.638Z,6.15
2023-02-26T10:28:57.345Z,6.52
2023-02-26T10:31:29.715Z,6.38
2023-02-26T10:34:17.442Z,6.28
2023-02-26T10:36:52.218Z,6.37
2023-02-26T10:39:29.224Z,6.27
2023-02-26T10:41:59.188Z,7.05
2023-02-26T10:44:33.531Z,7.31
2023-02-26T10:47:16.186Z,6.92
2023-02-26T10:49:52.597Z,6.73
2023-02-26T10:52:27.535Z,6.21
2023-02-26T10:55:03.899Z,6.45
2023-02-26T10:57:35.345Z,6.26
2023-02-26T11:00:02.951Z,6.18
2023-02-26T11:02:38.450Z,6.71
2023-02-26T11:05:08.199Z,6.12
2023-02-26T11:07:37.218Z,6.70
2023-02-26T11:10:04.149Z,6.44
2023-02-26T11:12:32.304Z,6.52
2023-02-26T11:15:00.977Z,7.15
2023-02-26T11:17:31.366Z,6.75
2023-02-26T11:20:05.466Z,7.06
2023-02-26T11:22:36.077Z,6.92
2023-02-26T11:25:03.542Z,6.81
2023-02-26T11:27:36.626Z,7.37
2023-02-26T11:30:25.998Z,7.12
2023-02-26T11:32:54.412Z,6.53
2023-02-26T11:35:24.113Z,6.67
2023-02-26T11:37:56.223Z,6.98
2023-02-26T11:40:25.341Z,6.92
2023-02-26T11:43:08.754Z,7.52
2023-02-26T11:45:38.002Z,8.25
2023-02-26T11:48:07.117Z,8.22
2023-02-26T11:50:44.901Z,7.65
2023-02-26T11:53:38.300Z,7.30
2023-02-26T11:56:11.499Z,7.32
2023-02-26T11:58:39.966Z,7.38
2023-02-26T12:01:08.015Z,7.21
2023-02-26T12:03:40.980Z,7.29
2023-02-26T12:06:21.615Z,7.53
2023-02-26T12:08:48.175Z,7.48
2023-02-26T12:11:39.744Z,7.50
2023-02-26T12:14:27.987Z,7.08
2023-02-26T12:17:14.810Z,7.04
2023-02-26T12:20:20.596Z,7.57
2023-02-26T12:22:54.830Z,6.97
2023-02-26T12:25:42.735Z,7.51
2023-02-26T12:28:29.848Z,7.72
2023-02-26T12:31:06.573Z,7.74
2023-02-26T12:34:01.025Z,8.07
2023-02-26T12:36:46.478Z,7.59
2023-02-26T12:39:39.085Z,8.49
2023-02-26T12:42:18.598Z,8.83
2023-02-26T12:44:45.034Z,8.45
2023-02-26T12:47:17.515Z,8.34
2023-02-26T12:49:47.049Z,8.05
2023-02-26T12:52:30.617Z,7.59
2023-02-26T12:55:14.748Z,7.74
2023-02-26T12:57:50.687Z,7.94
2023-02-26T13:00:23.402Z,7.33
2023-02-26T13:03:12.792Z,7.77
2023-02-26T13:05:42.241Z,7.83
2023-02-26T13:08:26.873Z,7.63
2023-02-26T13:11:32.507Z,7.47
2023-02-26T13:14:21.740Z,8.08
2023-02-26T13:17:01.572Z,8.18
2023-02-26T13:19:52.657Z,8.45
2023-02-26T13:22:27.583Z,8.63
2023-02-26T13:25:04.395Z,8.24
2023-02-26T13:27:34.492Z,8.06
2023-02-26T13:30:07.511Z,8.08
2023-02-26T13:32:36.026Z,7.81
2023-02-26T13:35:35.266Z,7.87
2023-02-26T13:38:03.280Z,7.75
2023-02-26T13:40:36.341Z,7.07
2023-02-26T13:43:15.518Z,7.81
2023-02-26T13:45:56.061Z,7.56
2023-02-26T13:48:53.684Z,7.75
2023-02-26T13:51:31.536Z,8.09
2023-02-26T13:54:00.282Z,8.37
2023-02-26T13:56:36.013Z,8.66
2023-02-26T13:59:14.268Z,8.38
2023-02-26T14:01:50.238Z,7.85
2023-02-26T14:04:24.977Z,7.89
2023-02-26T14:06:56.176Z,7.56
2023-02-26T14:09:22.625Z,7.94
2023-02-26T14:12:01.040Z,7.91
2023-02-26T14:14:33.992Z,7.72
2023-02-26T14:17:09.463Z,7.89
2023-02-26T14:19:43.170Z,8.12
2023-02-26T14:22:31.052Z,8.21
2023-02-26T14:25:18.731Z,7.93
2023-02-26T14:27:47.236Z,7.37
2023-02-26T14:30:32.633Z,7.73
2023-02-26T14:33:05.858Z,7.51
2023-02-26T14:35:35.162Z,7.63
2023-02-26T14:38:33.984Z,7.53
2023-02-26T14:41:06.088Z,7.60
2023-02-26T14:43:48.323Z,7.94
2023-02-26T14:46:14.838Z,7.75
2023-02-26T14:48:41.756Z,8.15
2023-02-26T14:51:31.996Z,8.86
2023-02-26T14:54:46.690Z,8.57
2023-02-26T14:57:27.610Z,7.70
2023-02-26T15:00:12.705Z,7.59
2023-02-26T15:02:39.038Z,7.41
2023-02-26T15:05:22.459Z,7.67
2023-02-26T15:07:49.498Z,7.57
2023-02-26T15:10:31.267Z,7.84
2023-02-26T15:13:15.546Z,7.37
2023-02-26T15:15:53.227Z,7.36
2023-02-26T15:18:39.969Z,7.61
2023-02-26T15:21:15.609Z,7.16
2023-02-26T15:23:45.654Z,7.56
2023-02-26T15:26:25.264Z,7.60
2023-02-26T15:28:52.356Z,7.68
2023-02-26T15:31:21.123Z,7.92
2023-02-26T15:33:50.743Z,8.09
2023-02-26T15:36:25.565Z,7.89
2023-02-26T15:38:57.538Z,8.12
2023-02-26T15:41:25.846Z,8.23
2023-02-26T15:44:04.943Z,8.13
2023-02-26T15:46:40.268Z,8.23
2023-02-26T15:49:26.809Z,8.13
2023-02-26T15:51:53.486Z,8.28
2023-02-26T15:54:23.056Z,8.04
2023-02-26T15:56:49.719Z,7.72
2023-02-26T15:59:26.816Z,7.77
2023-02-26T16:01:55.289Z,7.39
2023-02-26T16:04:23.628Z,7.85
2023-02-26T16:06:54.937Z,7.79
2023-02-26T16:09:29.598Z,7.64
2023-02-26T16:11:58.518Z,7.55
2023-02-26T16:14:28.376Z,7.20
2023-02-26T16:16:56.138Z,7.59
2023-02-26T16:19:41.464Z,7.31
2023-02-26T16:22:21.314Z,7.81
2023-02-26T16:24:53.509Z,7.42
2023-02-26T16:27:21.085Z,7.52
2023-02-26T16:29:52.004Z,7.65
2023-02-26T16:32:18.800Z,7.69
2023-02-26T16:34:54.860Z,7.27
2023-02-26T16:37:33.291Z,7.51
2023-02-26T16:40:28.852Z,7.52
2023-02-26T16:43:06.711Z,7.43
2023-02-26T16:45:36.505Z,7.54
2023-02-26T16:48:16.461Z,7.62
2023-02-26T16:50:43.582Z,7.45
2023-02-26T16:53:14.732Z,7.48
2023-02-26T16:55:43.257Z,7.42
2023-02-26T16:58:14.576Z,7.31
2023-02-26T17:00:44.756Z,7.47
2023-02-26T17:03:17.521Z,7.51
2023-02-26T17:06:02.119Z,7.54
2023-02-26T17:08:36.474Z,7.59
2023-02-26T17:11:07.067Z,7.67
2023-02-26T17:13:34.654Z,7.44
2023-02-26T17:16:02.767Z,7.33
2023-02-26T17:18:30.694Z,7.41
2023-02-26T17:20:58.332Z,7.43
2023-02-26T17:23:29.559Z,7.39
2023-02-26T17:25:56.462Z,7.29
2023-02-26T17:28:26.177Z,7.40
2023-02-26T17:30:53.016Z,7.65
2023-02-26T17:33:20.165Z,7.69
2023-02-26T17:35:47.009Z,7.67
2023-02-26T17:38:15.510Z,7.43
2023-02-26T17:40:44.000Z,7.56
2023-02-26T17:43:10.602Z,7.47
2023-02-26T17:45:39.114Z,7.33
2023-02-26T17:48:06.319Z,7.55
2023-02-26T17:50:48.598Z,7.37
2023-02-26T17:53:16.793Z,6.96
2023-02-26T17:55:44.879Z,7.24
2023-02-26T17:58:28.696Z,7.20
2023-02-26T18:00:55.576Z,7.27
2023-02-26T18:03:22.505Z,7.28
2023-02-26T18:05:49.940Z,7.43
2023-02-26T18:08:25.927Z,7.38
2023-02-26T18:10:52.957Z,7.05
2023-02-26T18:13:19.896Z,7.04
2023-02-26T18:15:49.122Z,6.97
2023-02-26T18:18:16.480Z,6.75
2023-02-26T18:20:44.114Z,6.74
2023-02-26T18:23:13.645Z,6.92
2023-02-26T18:25:41.108Z,6.76
2023-02-26T18:28:13.209Z,6.82
2023-02-26T18:30:41.536Z,6.81
2023-02-26T18:33:08.339Z,6.67
2023-02-26T18:35:34.812Z,6.33
2023-02-26T18:38:02.557Z,6.30
2023-02-26T18:40:29.131Z,6.47
2023-02-26T18:42:55.913Z,6.15
2023-02-26T18:45:22.289Z,6.36
2023-02-26T18:47:48.804Z,6.26
2023-02-26T18:50:17.555Z,6.28
2023-02-26T18:52:44.809Z,6.32
2023-02-26T18:55:12.333Z,6.13
2023-02-26T18:57:40.238Z,5.98
2023-02-26T19:00:14.624Z,6.00
2023-02-26T19:02:46.972Z,5.99
2023-02-26T19:05:13.957Z,5.97
2023-02-26T19:07:41.302Z,5.85
2023-02-26T19:10:11.053Z,5.79
2023-02-26T19:12:37.439Z,5.94
2023-02-26T19:15:04.581Z,5.96
2023-02-26T19:17:30.971Z,5.94
2023-02-26T19:19:58.140Z,5.89
2023-02-26T19:22:24.550Z,5.95
2023-02-26T19:24:53.179Z,6.01
2023-02-26T19:27:19.642Z,5.77
2023-02-26T19:29:46.729Z,5.93
2023-02-26T19:32:13.273Z,5.65
2023-02-26T19:34:39.770Z,5.79
2023-02-26T19:37:06.158Z,5.76
2023-02-26T19:39:34.651Z,5.54
2023-02-26T19:42:01.092Z,5.67
2023-02-26T19:44:28.031Z,5.43
2023-02-26T19:46:55.212Z,5.61
2023-02-26T19:49:23.033Z,5.65
2023-02-26T19:51:50.931Z,5.65
2023-02-26T19:54:17.690Z,5.73
2023-02-26T19:56:44.567Z,5.66
2023-02-26T19:59:12.316Z,5.55
2023-02-26T20:01:41.678Z,5.66
2023-02-26T20:04:10.455Z,5.79
2023-02-26T20:06:36.963Z,5.81
2023-02-26T20:09:04.098Z,5.74
2023-02-26T20:11:30.495Z,5.80
2023-02-26T20:13:57.152Z,5.75
2023-02-26T20:16:23.628Z,5.53
2023-02-26T20:18:50.288Z,5.60
2023-02-26T20:21:16.672Z,5.28
2023-02-26T20:23:43.080Z,5.36
2023-02-26T20:26:12.428Z,5.40
2023-02-26T20:28:39.644Z,5.45
2023-02-26T20:31:08.025Z,5.44
2023-02-26T20:33:36.140Z,5.33
2023-02-26T20:36:03.053Z,5.52
2023-02-26T20:38:29.602Z,5.44
2023-02-26T20:40:56.697Z,5.35
2023-02-26T20:43:24.921Z,5.24
2023-02-26T20:45:52.002Z,5.19
2023-02-26T20:48:18.397Z,5.47
2023-02-26T20:50:44.838Z,5.63
2023-02-26T20:53:11.558Z,5.45
2023-02-26T20:55:38.174Z,5.37
2023-02-26T20:58:04.950Z,5.36
2023-02-26T21:00:31.559Z,5.35
2023-02-26T21:02:58.326Z,5.41
2023-02-26T21:05:24.906Z,5.49
2023-02-26T21:07:51.363Z,5.50
2023-02-26T21:10:19.214Z,5.38
2023-02-26T21:12:45.768Z,5.27
2023-02-26T21:15:12.879Z,5.35
2023-02-26T21:17:40.652Z,5.39
2023-02-26T21:20:08.738Z,5.33
2023-02-26T21:22:38.050Z,5.43
2023-02-26T21:25:06.443Z,5.20
2023-02-26T21:27:35.262Z,5.37
2023-02-26T21:30:02.085Z,5.28
2023-02-26T21:32:28.559Z,5.38
2023-02-26T21:34:55.645Z,5.32
2023-02-26T21:37:22.083Z,5.32
2023-02-26T21:39:48.455Z,5.22
2023-02-26T21:42:15.483Z,5.30
2023-02-26T21:44:41.971Z,5.26
2023-02-26T21:47:08.663Z,5.31
2023-02-26T21:49:35.325Z,5.24
2023-02-26T21:52:04.217Z,5.30
2023-02-26T21:54:30.672Z,5.17
2023-02-26T21:56:57.491Z,5.14
2023-02-26T21:59:24.019Z,5.01
2023-02-26T22:01:51.319Z,5.18
2023-02-26T22:04:18.606Z,5.18
2023-02-26T22:06:45.252Z,5.17
2023-02-26T22:09:12.215Z,4.99
2023-02-26T22:11:38.637Z,4.96
2023-02-26T22:14:05.115Z,4.96
2023-02-26T22:16:31.689Z,4.98
2023-02-26T22:18:58.119Z,5.06
2023-02-26T22:21:24.714Z,5.03
2023-02-26T22:23:51.204Z,4.99
2023-02-26T22:26:17.858Z,5.13
2023-02-26T22:28:44.286Z,5.08
2023-02-26T22:31:10.773Z,5.15
2023-02-26T22:33:37.223Z,5.04
2023-02-26T22:36:03.783Z,5.01
2023-02-26T22:38:30.272Z,5.15
2023-02-26T22:40:56.692Z,5.10
2023-02-26T22:43:23.092Z,5.04
2023-02-26T22:45:50.333Z,4.86
2023-02-26T22:48:17.909Z,4.85
2023-02-26T22:50:44.335Z,4.91
2023-02-26T22:53:10.780Z,4.90
2023-02-26T22:55:37.202Z,5.01
2023-02-26T22:58:04.770Z,4.96
2023-02-26T23:00:31.153Z,4.81
2023-02-26T23:02:57.574Z,4.83
2023-02-26T23:05:24.110Z,4.77
2023-02-26T23:07:50.587Z,4.75
2023-02-26T23:10:19.008Z,4.74
2023-02-26T23:12:46.752Z,4.75
2023-02-26T23:15:14.106Z,4.58
2023-02-26T23:17:41.337Z,4.69
2023-02-26T23:20:13.674Z,4.71
2023-02-26T23:22:41.323Z,4.87
2023-02-26T23:25:08.200Z,4.59
2023-02-26T23:27:34.644Z,4.65
2023-02-26T23:30:01.758Z,4.62
2023-02-26T23:32:28.256Z,4.55
2023-02-26T23:34:54.677Z,4.59
2023-02-26T23:37:21.076Z,4.70
2023-02-26T23:39:49.270Z,4.60
2023-02-26T23:42:15.804Z,4.71
2023-02-26T23:44:42.198Z,4.62
2023-02-26T23:47:08.863Z,4.46
2023-02-26T23:49:35.283Z,4.50
2023-02-26T23:52:01.730Z,4.64
2023-02-26T23:54:28.229Z,4.74
2023-02-26T23:56:54.616Z,4.71
2023-02-26T23:59:21.340Z,4.73
